KFEW/FEW METAR and TAF weather

Enter ICAO airport designator
Station Type Date Time Source
KFEW METAR 2020/06/03 23:03 UTC NOAA

KFEW 032303Z 27011G27KT 10SM BKN075 23/00 A3011 RMK AO2A LTG DSNT SW SHRAE03 SLP125 $


Station Type Date Time Source
KFEW Decoded METAR 2020/06/03 23:03 UTC NOAA

Station name not available
Jun 03, 2020 - 07:03 PM EDT / 2020.06.03 2303 UTC
Wind: from the W (270 degrees) at 13 MPH (11 KT) gusting to 31 MPH (27 KT):0
Visibility: 10 mile(s):0
Sky conditions: mostly cloudy
Weather: Lightning observed
Temperature: 73 F (23 C)
Dew Point: 32 F (0 C)
Relative Humidity: 21%
Pressure (altimeter): 30.11 in. Hg (1019 hPa)
ob: KFEW 032303Z 27011G27KT 10SM BKN075 23/00 A3011 RMK AO2A LTG DSNT SW SHRAE03 SLP125
cycle: 23

Station Type Date Time Source
KFEW TAF UTC NOAA

Error!

Example: see airport list